Аэропорт: Иркутск. Иркутск

ICAO: UIII

METAR:
2019-11-21 09:00:00
UIII 210900Z 31009MPS 1900 R30/1900U SHSN BLSN OVC013CB M12/M14 Q1014 RESHSN R30/490540 NOSIG RMK QFE716/0955
METAR:
2019-11-21 08:00:00
TAF UIII 210800Z 2109/2209 30008MPS 2000 SHSN DRSN BKN011CB TEMPO 2109/2121 32015MPS 0900 +SHSN BLSN VV003 BECMG 2121/2122 9999 NSW BECMG 2122/2123 30003MPS NSC